Time;durP1;ratioP1;P1;durP2;ratioP2;P2;SDS_P1;SDS_P2;PMS_P1;PMS_P2;Temp;Humidity;BMP_temperature;BMP_pressure;BME280_temperature;BME280_humidity;BME280_pressure;Samples;Min_cycle;Max_cycle;Signal;HPM_P1;HPM_P2
2020/12/13 00:00:15;;;;;;;13.23;10.93;;;;;;;2.36;100.00;94782.88;1022018;28;20061;-71
2020/12/13 00:00:45;;;;;;;14.82;11.80;;;;;;;2.34;100.00;94784.91;1022592;28;20023;-69
2020/12/13 00:01:16;;;;;;;16.75;12.05;;;;;;;2.33;100.00;94789.31;1030600;28;20396;-70
2020/12/13 00:01:46;;;;;;;16.58;12.30;;;;;;;2.31;100.00;94785.38;1029550;28;20022;-68
2020/12/13 00:02:19;;;;;;;15.23;12.00;;;;;;;2.21;100.00;94769.69;1022419;28;20089;-71
2020/12/13 00:02:49;;;;;;;14.32;11.50;;;;;;;2.29;100.00;94782.25;1018426;29;20052;-69
2020/12/13 00:03:20;;;;;;;13.85;11.32;;;;;;;2.31;100.00;94790.56;1024754;28;20027;-70
2020/12/13 00:03:50;;;;;;;16.50;12.15;;;;;;;2.30;100.00;94786.41;1022644;29;20385;-68
2020/12/13 00:04:21;;;;;;;12.32;11.02;;;;;;;2.30;100.00;94787.19;1021815;28;20039;-68
2020/12/13 00:04:51;;;;;;;15.23;12.52;;;;;;;2.29;100.00;94788.22;1026134;28;20023;-69
2020/12/13 00:05:22;;;;;;;14.52;12.50;;;;;;;2.31;100.00;94785.38;1018442;28;20042;-68
2020/12/13 00:05:52;;;;;;;14.32;11.70;;;;;;;2.32;100.00;94792.16;1018750;28;20035;-67
2020/12/13 00:06:23;;;;;;;16.23;12.75;;;;;;;2.31;100.00;94791.38;1026381;28;20030;-68
2020/12/13 00:06:53;;;;;;;14.70;11.35;;;;;;;2.31;100.00;94790.56;1022267;28;20055;-72
2020/12/13 00:07:24;;;;;;;12.57;10.05;;;;;;;2.32;100.00;94792.16;1026403;28;20085;-70
2020/12/13 00:07:55;;;;;;;13.77;12.10;;;;;;;2.32;100.00;94784.38;1026410;28;20290;-68
2020/12/13 00:08:26;;;;;;;15.75;11.98;;;;;;;2.33;100.00;94786.72;1025838;28;20057;-71
2020/12/13 00:08:57;;;;;;;13.10;10.90;;;;;;;2.24;100.00;94779.56;1023150;28;20031;-70
2020/12/13 00:09:27;;;;;;;13.52;11.12;;;;;;;2.32;100.00;94790.34;1028801;28;20094;-66
2020/12/13 00:09:58;;;;;;;15.82;12.27;;;;;;;2.25;100.00;94781.16;1026122;28;20488;-67
2020/12/13 00:10:28;;;;;;;13.07;11.18;;;;;;;2.34;100.00;94796.03;1026590;28;20023;-69
2020/12/13 00:10:59;;;;;;;14.23;11.43;;;;;;;2.27;100.00;94781.69;1030430;28;20022;-69
2020/12/13 00:11:30;;;;;;;14.07;11.40;;;;;;;2.34;100.00;94790.09;1033832;28;20467;-71
2020/12/13 00:12:02;;;;;;;14.30;11.70;;;;;;;2.31;100.00;94780.19;1027388;28;20022;-72
2020/12/13 00:12:35;;;;;;;13.18;10.90;;;;;;;2.33;100.00;94793.72;1024835;28;20055;-70
2020/12/13 00:13:05;;;;;;;12.24;10.70;;;;;;;2.35;100.00;94791.69;1022190;29;20492;-69
2020/12/13 00:13:36;;;;;;;13.95;11.50;;;;;;;2.33;100.00;94793.72;1032700;28;20023;-67
2020/12/13 00:14:06;;;;;;;15.00;12.20;;;;;;;2.22;100.00;94782.41;1043675;28;20426;-69
2020/12/13 00:14:37;;;;;;;12.82;10.90;;;;;;;2.23;100.00;94778.00;1028323;28;20405;-68
2020/12/13 00:15:07;;;;;;;14.73;12.02;;;;;;;2.32;100.00;94795.50;1028846;28;20033;-67
2020/12/13 00:15:39;;;;;;;17.42;12.57;;;;;;;2.31;100.00;94795.72;1026284;28;20759;-67
2020/12/13 00:16:11;;;;;;;16.06;12.58;;;;;;;2.29;100.00;94795.97;1026673;28;20033;-68
2020/12/13 00:16:41;;;;;;;13.54;11.76;;;;;;;2.31;100.00;94795.72;1026833;28;20035;-69
2020/12/13 00:17:11;;;;;;;14.57;11.75;;;;;;;2.33;100.00;94796.28;1026026;28;20412;-68
2020/12/13 00:17:42;;;;;;;12.93;11.10;;;;;;;2.15;100.00;94776.59;1023892;28;20063;-69
2020/12/13 00:18:12;;;;;;;15.27;11.68;;;;;;;2.28;100.00;94791.84;1026392;28;20023;-69
2020/12/13 00:18:43;;;;;;;15.73;12.27;;;;;;;2.29;100.00;94797.78;1029875;28;20036;-69
2020/12/13 00:19:14;;;;;;;15.43;11.77;;;;;;;2.32;100.00;94799.91;1030373;28;20057;-68
2020/12/13 00:19:44;;;;;;;13.57;10.88;;;;;;;2.29;100.00;94792.59;1030244;28;20022;-68
2020/12/13 00:20:15;;;;;;;11.77;10.18;;;;;;;2.23;100.00;94789.13;1018336;28;20031;-68
2020/12/13 00:20:45;;;;;;;13.85;10.95;;;;;;;2.32;100.00;94808.47;1043226;28;20078;-69
2020/12/13 00:21:16;;;;;;;13.07;11.23;;;;;;;2.32;100.00;94797.31;1039150;28;20107;-68
2020/12/13 00:21:54;;;;;;;14.95;11.65;;;;;;;2.27;100.00;94795.41;1042461;28;20096;-67
2020/12/13 00:22:24;;;;;;;12.88;10.82;;;;;;;2.29;100.00;94792.59;1041952;28;20020;-68
2020/12/13 00:22:55;;;;;;;15.23;11.55;;;;;;;2.35;100.00;94809.81;1027590;28;20046;-68
2020/12/13 00:23:25;;;;;;;14.45;11.10;;;;;;;2.33;100.00;94798.88;1026121;28;20027;-70
2020/12/13 00:23:56;;;;;;;13.60;11.57;;;;;;;2.31;100.00;94806.09;1022363;28;20034;-67
2020/12/13 00:24:26;;;;;;;11.65;10.45;;;;;;;2.26;100.00;94793.06;1018787;28;20101;-69
2020/12/13 00:24:57;;;;;;;11.70;10.20;;;;;;;2.31;100.00;94804.31;1022319;28;20065;-69
2020/12/13 00:25:27;;;;;;;12.73;10.02;;;;;;;2.33;100.00;94810.03;1026330;28;20034;-71
2020/12/13 00:25:58;;;;;;;13.05;11.00;;;;;;;2.20;100.00;94783.66;1022454;28;20039;-67
2020/12/13 00:26:28;;;;;;;11.98;10.18;;;;;;;2.34;100.00;94805.63;1022559;29;20027;-67
2020/12/13 00:26:59;;;;;;;12.90;11.00;;;;;;;2.34;100.00;94805.63;1019441;28;20036;-69
2020/12/13 00:27:29;;;;;;;12.35;11.05;;;;;;;2.27;100.00;94794.63;1018244;29;20469;-69
2020/12/13 00:28:00;;;;;;;14.30;11.43;;;;;;;2.25;100.00;94794.09;1018304;28;20051;-69
2020/12/13 00:28:30;;;;;;;12.20;10.45;;;;;;;2.35;100.00;94813.16;1022422;29;20058;-68
2020/12/13 00:29:00;;;;;;;12.48;10.60;;;;;;;2.35;100.00;94807.22;1015231;28;20031;-67
2020/12/13 00:29:31;;;;;;;11.65;10.45;;;;;;;2.31;100.00;94806.91;1020521;29;20519;-68
2020/12/13 00:30:02;;;;;;;12.60;10.00;;;;;;;2.35;100.00;94812.38;1022273;29;20034;-67
2020/12/13 00:30:33;;;;;;;11.16;9.88;;;;;;;2.32;100.00;94811.03;1022327;28;20039;-68
2020/12/13 00:31:04;;;;;;;12.20;10.23;;;;;;;2.25;100.00;94794.88;1022683;28;20042;-71
2020/12/13 00:31:35;;;;;;;11.26;9.86;;;;;;;2.34;100.00;94816.75;1021368;28;20097;-68
2020/12/13 00:32:05;;;;;;;12.02;10.60;;;;;;;2.34;100.00;94813.38;1020577;28;20073;-69
2020/12/13 00:32:36;;;;;;;12.63;10.38;;;;;;;2.28;100.00;94801.38;1023586;28;20035;-68
2020/12/13 00:33:06;;;;;;;18.42;12.52;;;;;;;2.24;100.00;94800.28;1026388;28;20035;-66
2020/12/13 00:33:37;;;;;;;12.30;10.73;;;;;;;2.32;100.00;94812.84;1025852;28;20492;-66
2020/12/13 00:34:07;;;;;;;11.48;10.18;;;;;;;2.36;100.00;94813.94;1018184;28;20032;-69
2020/12/13 00:34:38;;;;;;;11.23;9.32;;;;;;;2.36;100.00;94813.94;1022216;29;20500;-69
2020/12/13 00:35:08;;;;;;;13.15;10.38;;;;;;;2.35;100.00;94812.38;1030369;28;20448;-70
2020/12/13 00:35:39;;;;;;;12.23;10.40;;;;;;;2.35;100.00;94820.94;1021826;28;20027;-68
2020/12/13 00:36:09;;;;;;;11.38;9.65;;;;;;;2.33;100.00;94812.59;1020989;28;20019;-69
2020/12/13 00:36:40;;;;;;;13.40;10.27;;;;;;;2.34;100.00;94808.22;1034242;28;20219;-68
2020/12/13 00:37:10;;;;;;;12.65;11.32;;;;;;;2.34;100.00;94813.38;1028850;28;20058;-69
2020/12/13 00:37:41;;;;;;;13.35;11.18;;;;;;;2.35;100.00;94809.81;1025511;28;20601;-69
2020/12/13 00:38:11;;;;;;;11.15;9.95;;;;;;;2.31;100.00;94806.09;1026175;28;20027;-69
2020/12/13 00:38:42;;;;;;;12.27;10.15;;;;;;;2.36;100.00;94819.91;1025842;28;20381;-68
2020/12/13 00:39:12;;;;;;;10.55;8.85;;;;;;;2.36;100.00;94819.13;1022295;28;20031;-71
2020/12/13 00:39:43;;;;;;;12.05;9.57;;;;;;;2.36;100.00;94809.56;1029905;28;20030;-66
2020/12/13 00:40:13;;;;;;;11.00;9.73;;;;;;;2.35;100.00;94813.16;1030452;28;20087;-69
2020/12/13 00:40:44;;;;;;;14.07;11.45;;;;;;;2.36;100.00;94813.94;1030962;28;20123;-68
2020/12/13 00:41:14;;;;;;;14.27;11.82;;;;;;;2.35;100.00;94813.16;1038386;28;20401;-69
2020/12/13 00:41:49;;;;;;;13.63;11.40;;;;;;;2.33;100.00;94814.41;1046594;28;20047;-68
2020/12/13 00:42:20;;;;;;;13.56;11.00;;;;;;;2.38;100.00;94813.69;1047906;28;20032;-70
2020/12/13 00:42:50;;;;;;;12.27;10.65;;;;;;;2.36;100.00;94819.13;1026394;28;20015;-69
2020/12/13 00:43:21;;;;;;;11.35;9.75;;;;;;;2.35;100.00;94820.94;1026880;28;20022;-67
2020/12/13 00:43:51;;;;;;;14.55;10.52;;;;;;;2.31;100.00;94806.09;1030148;28;20469;-66
2020/12/13 00:44:22;;;;;;;13.15;10.68;;;;;;;2.26;100.00;94804.22;1027143;28;20812;-68
2020/12/13 00:44:53;;;;;;;13.63;11.70;;;;;;;2.27;100.00;94810.94;1026436;28;20023;-67
2020/12/13 00:45:24;;;;;;;12.82;9.74;;;;;;;2.30;100.00;94810.47;1025812;28;20494;-70
2020/12/13 00:45:54;;;;;;;10.20;9.07;;;;;;;2.33;100.00;94824.75;1019191;29;20046;-68
2020/12/13 00:46:25;;;;;;;13.98;10.82;;;;;;;2.35;100.00;94822.75;1021617;28;20078;-67
2020/12/13 00:46:55;;;;;;;11.27;10.07;;;;;;;2.33;100.00;94820.38;1018418;28;20066;-67
2020/12/13 00:47:26;;;;;;;10.68;9.50;;;;;;;2.34;100.00;94824.53;1021959;28;20055;-68
2020/12/13 00:47:56;;;;;;;12.23;10.68;;;;;;;2.34;100.00;94821.16;1029795;28;20033;-74
2020/12/13 00:48:26;;;;;;;14.02;11.52;;;;;;;2.34;100.00;94821.16;1030047;28;20584;-70
2020/12/13 00:48:57;;;;;;;12.32;10.70;;;;;;;2.27;100.00;94807.56;1031160;28;20578;-66
2020/12/13 00:49:27;;;;;;;12.63;10.35;;;;;;;2.34;100.00;94826.31;1030125;28;20034;-69
2020/12/13 00:49:58;;;;;;;16.98;11.95;;;;;;;2.27;100.00;94810.16;1030289;28;20050;-67
2020/12/13 00:50:28;;;;;;;13.52;11.40;;;;;;;2.27;100.00;94815.34;1022072;28;20031;-70
2020/12/13 00:50:59;;;;;;;13.20;10.98;;;;;;;2.25;100.00;94807.03;1019985;29;20024;-67
2020/12/13 00:51:29;;;;;;;13.20;11.00;;;;;;;2.35;100.00;94827.91;1021859;28;20023;-69
2020/12/13 00:52:01;;;;;;;11.43;10.02;;;;;;;2.34;100.00;94823.75;1022295;29;20026;-68
2020/12/13 00:52:32;;;;;;;12.62;10.50;;;;;;;2.34;100.00;94821.16;1026211;28;20049;-70
2020/12/13 00:53:02;;;;;;;14.18;11.27;;;;;;;2.34;100.00;94826.31;1030020;28;20476;-68
2020/12/13 00:53:32;;;;;;;12.15;10.82;;;;;;;2.33;100.00;94827.34;1029222;28;20026;-68
2020/12/13 00:54:03;;;;;;;11.60;10.10;;;;;;;2.34;100.00;94826.31;1026435;28;20533;-67
2020/12/13 00:54:33;;;;;;;12.48;10.68;;;;;;;2.29;100.00;94818.50;1034364;28;20112;-72
2020/12/13 00:55:04;;;;;;;12.00;10.68;;;;;;;2.31;100.00;94830.19;1038246;28;20033;-68
2020/12/13 00:55:34;;;;;;;11.85;10.50;;;;;;;2.26;100.00;94822.31;1034434;28;20517;-71
2020/12/13 00:56:05;;;;;;;15.65;11.57;;;;;;;2.25;100.00;94812.22;1044789;28;20035;-68
2020/12/13 00:56:35;;;;;;;12.52;11.02;;;;;;;2.28;100.00;94822.06;1032593;28;20813;-68
2020/12/13 00:57:06;;;;;;;14.57;10.50;;;;;;;2.33;100.00;94833.31;1022797;28;20516;-68
2020/12/13 00:57:39;;;;;;;13.26;11.12;;;;;;;2.30;100.00;94827.81;1029578;28;20499;-69
2020/12/13 00:58:09;;;;;;;13.35;11.13;;;;;;;2.31;100.00;94831.97;1027038;28;20027;-67
2020/12/13 00:58:40;;;;;;;13.02;11.13;;;;;;;2.32;100.00;94833.56;1029702;28;20056;-70
2020/12/13 00:59:10;;;;;;;11.80;10.60;;;;;;;2.30;100.00;94825.22;1034380;28;20018;-67
2020/12/13 00:59:41;;;;;;;12.00;10.18;;;;;;;2.35;100.00;94838.28;1026788;28;20031;-69
2020/12/13 01:00:11;;;;;;;13.23;11.40;;;;;;;2.33;100.00;94835.91;1029024;28;20034;-69
2020/12/13 01:00:42;;;;;;;12.20;10.50;;;;;;;2.33;100.00;94838.50;1025733;28;20015;-67
2020/12/13 01:01:12;;;;;;;11.20;10.02;;;;;;;2.34;100.00;94836.69;1026595;28;20397;-68
2020/12/13 01:01:43;;;;;;;10.27;8.82;;;;;;;2.34;100.00;94831.50;1029345;28;20030;-71
2020/12/13 01:02:13;;;;;;;12.15;10.35;;;;;;;2.25;100.00;94825.16;1022173;28;20520;-69
2020/12/13 01:02:44;;;;;;;15.77;12.25;;;;;;;2.36;100.00;94834.66;1018182;28;20026;-70
2020/12/13 01:03:14;;;;;;;15.40;12.30;;;;;;;2.37;100.00;94846.56;1022262;29;20027;-69
2020/12/13 01:03:44;;;;;;;14.73;11.15;;;;;;;2.37;100.00;94838.81;1026211;28;20027;-69
2020/12/13 01:04:15;;;;;;;15.77;12.75;;;;;;;2.35;100.00;94838.28;1030116;28;20457;-68
2020/12/13 01:04:46;;;;;;;12.52;10.90;;;;;;;2.36;100.00;94838.03;1034052;28;20026;-68
2020/12/13 01:05:17;;;;;;;12.60;10.26;;;;;;;2.29;100.00;94821.84;1033211;28;20479;-66
2020/12/13 01:05:47;;;;;;;12.23;10.65;;;;;;;2.35;100.00;94844.22;1034098;28;20062;-70
2020/12/13 01:06:24;;;;;;;11.85;10.45;;;;;;;2.36;100.00;94845.78;1027832;28;20053;-68
2020/12/13 01:06:55;;;;;;;13.72;11.96;;;;;;;2.39;100.00;94849.72;1023024;28;20492;-68
2020/12/13 01:07:26;;;;;;;12.18;10.75;;;;;;;2.30;100.00;94830.41;1029999;28;20026;-67
2020/12/13 01:07:56;;;;;;;12.40;10.48;;;;;;;2.42;100.00;94843.31;1031293;28;20034;-72
2020/12/13 01:08:27;;;;;;;13.40;10.68;;;;;;;2.32;100.00;94838.72;1029860;28;20037;-69
2020/12/13 01:08:57;;;;;;;11.50;10.25;;;;;;;2.38;100.00;94848.13;1025858;28;20023;-68
2020/12/13 01:09:27;;;;;;;13.35;10.40;;;;;;;2.38;100.00;94847.34;1026171;28;20542;-68
2020/12/13 01:09:58;;;;;;;13.18;11.77;;;;;;;2.32;100.00;94843.91;1025743;28;20572;-73
2020/12/13 01:10:28;;;;;;;16.77;12.43;;;;;;;2.34;100.00;94852.22;1023582;28;20052;-69
2020/12/13 01:10:59;;;;;;;13.02;11.38;;;;;;;2.26;100.00;94837.06;1024218;28;20039;-68
2020/12/13 01:11:31;;;;;;;14.88;11.82;;;;;;;2.28;100.00;94842.78;1025309;28;20429;-69
2020/12/13 01:12:02;;;;;;;16.66;13.14;;;;;;;2.37;100.00;94849.16;1026001;28;20045;-69
2020/12/13 01:12:32;;;;;;;12.90;11.13;;;;;;;2.28;100.00;94845.38;1024308;28;20586;-71
2020/12/13 01:13:03;;;;;;;12.63;10.65;;;;;;;2.38;100.00;94855.13;1021911;29;20063;-69
2020/12/13 01:13:33;;;;;;;14.70;11.40;;;;;;;2.19;100.00;94832.03;1019030;28;20114;-68
2020/12/13 01:14:04;;;;;;;13.68;11.15;;;;;;;2.30;100.00;94840.75;1026067;28;20495;-68
2020/12/13 01:14:35;;;;;;;10.95;9.77;;;;;;;2.40;100.00;94859.06;1026325;28;20103;-70
2020/12/13 01:15:06;;;;;;;14.18;11.25;;;;;;;2.38;100.00;94857.72;1030352;28;20022;-69
2020/12/13 01:15:36;;;;;;;12.36;10.88;;;;;;;2.41;100.00;94860.63;1030387;28;20030;-71
2020/12/13 01:16:07;;;;;;;15.13;11.93;;;;;;;2.40;100.00;94856.47;1030245;28;20023;-70
2020/12/13 01:16:37;;;;;;;13.25;11.05;;;;;;;2.41;100.00;94860.63;1029517;28;20030;-68
2020/12/13 01:17:08;;;;;;;12.23;10.63;;;;;;;2.33;100.00;94848.06;1023523;28;20539;-67
2020/12/13 01:17:38;;;;;;;12.70;10.98;;;;;;;2.36;100.00;94855.38;1030308;28;20017;-70
2020/12/13 01:18:09;;;;;;;11.73;10.20;;;;;;;2.38;100.00;94849.94;1024917;28;20026;-69
2020/12/13 01:18:39;;;;;;;12.90;11.48;;;;;;;2.27;100.00;94847.19;1029178;28;20021;-68
2020/12/13 01:19:10;;;;;;;14.50;12.32;;;;;;;2.29;100.00;94850.34;1038092;28;20117;-69
2020/12/13 01:19:47;;;;;;;11.40;10.20;;;;;;;2.41;100.00;94860.63;1042775;28;20104;-70
2020/12/13 01:20:17;;;;;;;12.32;11.00;;;;;;;2.43;100.00;94874.13;1021944;28;20417;-65
2020/12/13 01:20:48;;;;;;;15.73;12.85;;;;;;;2.39;100.00;94865.25;1021396;29;20023;-68
2020/12/13 01:21:23;;;;;;;14.90;11.93;;;;;;;2.37;100.00;94862.09;1022653;28;20043;-72
2020/12/13 01:21:56;;;;;;;14.26;11.40;;;;;;;2.40;100.00;94869.41;1027198;28;20022;-70
2020/12/13 01:22:26;;;;;;;13.18;10.84;;;;;;;2.43;100.00;94866.34;1029619;28;20046;-65
2020/12/13 01:22:57;;;;;;;11.40;10.20;;;;;;;2.39;100.00;94860.06;1037196;28;20022;-71
2020/12/13 01:23:27;;;;;;;14.98;11.82;;;;;;;2.40;100.00;94872.00;1033387;28;20079;-71
2020/12/13 01:23:58;;;;;;;14.45;12.07;;;;;;;2.41;100.00;94859.84;1030156;28;20065;-71
2020/12/13 01:24:28;;;;;;;13.35;11.85;;;;;;;2.40;100.00;94871.22;1022462;29;20066;-68
2020/12/13 01:24:59;;;;;;;13.27;10.90;;;;;;;2.44;100.00;94869.72;1026103;28;20140;-72
2020/12/13 01:25:29;;;;;;;13.55;11.77;;;;;;;2.41;100.00;94862.41;1026141;28;20027;-69
2020/12/13 01:25:59;;;;;;;14.82;12.52;;;;;;;2.42;100.00;94864.78;1030151;28;20476;-67
2020/12/13 01:26:30;;;;;;;13.48;12.02;;;;;;;2.41;100.00;94870.97;1022337;28;20027;-66
2020/12/13 01:27:01;;;;;;;14.38;11.77;;;;;;;2.39;100.00;94870.44;1026078;28;20049;-69
2020/12/13 01:27:31;;;;;;;16.20;12.38;;;;;;;2.41;100.00;94873.56;1026386;28;20416;-68
2020/12/13 01:28:02;;;;;;;16.38;12.65;;;;;;;2.41;100.00;94868.38;1026097;28;20027;-69
2020/12/13 01:28:32;;;;;;;15.77;13.13;;;;;;;2.43;100.00;94871.53;1034365;28;20567;-68
2020/12/13 01:29:03;;;;;;;14.23;12.70;;;;;;;2.38;100.00;94863.66;1030190;28;20038;-68
2020/12/13 01:29:33;;;;;;;15.30;12.80;;;;;;;2.25;100.00;94843.28;1030437;28;20166;-68
2020/12/13 01:30:09;;;;;;;17.80;13.95;;;;;;;2.32;100.00;94867.22;1034044;28;20108;-70
2020/12/13 01:30:39;;;;;;;14.22;11.94;;;;;;;2.34;100.00;94862.56;1030780;28;20026;-68
2020/12/13 01:31:17;;;;;;;15.52;12.18;;;;;;;2.36;100.00;94870.91;1030316;28;20807;-70
2020/12/13 01:31:48;;;;;;;16.42;11.16;;;;;;;2.41;100.00;94878.75;1022962;28;20015;-68
2020/12/13 01:32:18;;;;;;;17.38;13.25;;;;;;;2.41;100.00;94878.75;1023020;28;20035;-68
2020/12/13 01:32:49;;;;;;;17.13;13.70;;;;;;;2.41;100.00;94877.97;1023346;28;20055;-69
2020/12/13 01:33:19;;;;;;;18.13;13.95;;;;;;;2.41;100.00;94883.91;1022227;28;20046;-69
2020/12/13 01:33:51;;;;;;;12.32;11.02;;;;;;;2.38;100.00;94870.66;1027588;28;20076;-69
2020/12/13 01:34:21;;;;;;;12.68;11.24;;;;;;;2.43;100.00;94881.09;1026233;28;20553;-68
2020/12/13 01:34:52;;;;;;;12.38;11.07;;;;;;;2.32;100.00;94862.81;1029851;28;20010;-69
2020/12/13 01:35:25;;;;;;;17.33;12.18;;;;;;;2.42;100.00;94880.31;1022097;28;20027;-68
2020/12/13 01:35:55;;;;;;;12.94;10.60;;;;;;;2.42;100.00;94877.75;1022519;28;20148;-69
2020/12/13 01:36:26;;;;;;;12.88;11.20;;;;;;;2.36;100.00;94866.50;1026288;28;20458;-71
2020/12/13 01:36:56;;;;;;;13.27;11.88;;;;;;;2.44;100.00;94878.28;1031116;28;20027;-72
2020/12/13 01:37:26;;;;;;;14.35;11.93;;;;;;;2.41;100.00;94881.31;1038484;28;20013;-67
2020/12/13 01:37:57;;;;;;;18.10;14.90;;;;;;;2.32;100.00;94875.75;1042232;28;20078;-70
2020/12/13 01:38:27;;;;;;;16.50;13.43;;;;;;;2.34;100.00;94873.69;1037771;28;20041;-69
2020/12/13 01:38:58;;;;;;;16.02;13.10;;;;;;;2.40;100.00;94886.75;1026192;28;20084;-69
2020/12/13 01:39:29;;;;;;;15.90;13.27;;;;;;;2.42;100.00;94884.72;1023500;28;20034;-72
2020/12/13 01:40:00;;;;;;;16.32;12.92;;;;;;;2.19;100.00;94844.19;1026072;28;20050;-69
2020/12/13 01:40:30;;;;;;;16.70;13.30;;;;;;;2.43;100.00;94884.47;1025907;28;20076;-68
2020/12/13 01:41:01;;;;;;;16.00;14.02;;;;;;;2.34;100.00;94872.91;1026114;28;20050;-68
2020/12/13 01:41:31;;;;;;;15.30;12.65;;;;;;;2.38;100.00;94873.25;1021579;29;20042;-70
2020/12/13 01:42:02;;;;;;;14.95;12.63;;;;;;;2.39;100.00;94878.19;1023697;28;20118;-68
2020/12/13 01:42:39;;;;;;;16.23;13.15;;;;;;;2.42;100.00;94885.50;1026209;28;20062;-69
2020/12/13 01:43:09;;;;;;;17.36;14.00;;;;;;;2.42;100.00;94889.91;1026018;28;20023;-67
2020/12/13 01:43:40;;;;;;;15.77;12.70;;;;;;;2.39;100.00;94883.38;1026263;28;20109;-71
2020/12/13 01:44:10;;;;;;;18.42;14.65;;;;;;;2.42;100.00;94885.50;1024173;28;20475;-67
2020/12/13 01:44:41;;;;;;;20.80;15.70;;;;;;;2.43;100.00;94883.69;1029926;28;20030;-68
2020/12/13 01:45:18;;;;;;;16.90;13.77;;;;;;;2.42;100.00;94890.69;1030261;28;20479;-70
2020/12/13 01:45:48;;;;;;;18.30;13.52;;;;;;;2.44;100.00;94883.44;1032265;28;20034;-69
2020/12/13 01:46:19;;;;;;;15.43;12.57;;;;;;;2.39;100.00;94880.00;1029875;28;20435;-69
2020/12/13 01:46:49;;;;;;;16.70;13.60;;;;;;;2.45;100.00;94889.41;1030394;28;20232;-69
2020/12/13 01:47:21;;;;;;;17.20;14.05;;;;;;;2.44;100.00;94887.84;1030073;28;20019;-68
2020/12/13 01:47:51;;;;;;;18.00;14.36;;;;;;;2.43;100.00;94887.06;1026900;28;20061;-72
2020/12/13 01:48:22;;;;;;;17.75;14.57;;;;;;;2.35;100.00;94869.34;1030068;28;20038;-69
2020/12/13 01:49:02;;;;;;;18.67;15.23;;;;;;;2.34;100.00;94878.88;1022147;28;20027;-67
2020/12/13 01:49:37;;;;;;;17.00;13.77;;;;;;;2.41;100.00;94883.91;1022174;28;20035;-69
2020/12/13 01:50:12;;;;;;;15.74;13.32;;;;;;;2.45;100.00;94884.22;1018175;29;20605;-70
2020/12/13 01:53:18;;;;;;;19.35;14.77;;;;;;;2.38;100.00;94879.19;1010415;28;20029;-69
2020/12/13 01:53:49;;;;;;;19.50;14.56;;;;;;;2.35;100.00;94879.69;1023016;29;20425;-70
2020/12/13 01:54:20;;;;;;;19.67;14.80;;;;;;;2.45;100.00;94895.41;1026811;28;20114;-68
2020/12/13 01:55:11;;;;;;;17.13;14.68;;;;;;;2.44;100.00;94891.22;1030636;28;20101;-69
2020/12/13 01:55:43;;;;;;;17.86;14.20;;;;;;;2.45;100.00;94895.41;1033349;28;20038;-70
2020/12/13 01:56:14;;;;;;;17.52;13.66;;;;;;;2.43;100.00;94892.25;1035153;28;20549;-72
2020/12/13 01:56:48;;;;;;;18.40;14.20;;;;;;;2.45;100.00;94903.16;1050658;28;20035;-72
2020/12/13 01:57:19;;;;;;;20.12;15.68;;;;;;;2.45;100.00;94892.00;1042418;28;20063;-67
2020/12/13 01:57:51;;;;;;;18.80;14.02;;;;;;;2.37;100.00;94882.81;1039075;28;20032;-68
2020/12/13 01:58:30;;;;;;;17.16;13.90;;;;;;;2.42;100.00;94897.66;1040273;28;20029;-66
2020/12/13 01:59:00;;;;;;;17.80;13.50;;;;;;;2.45;100.00;94894.59;1022706;29;20035;-68
2020/12/13 01:59:31;;;;;;;16.58;12.32;;;;;;;2.49;100.00;94899.09;1024847;28;20163;-67
2020/12/13 02:00:08;;;;;;;22.75;16.42;;;;;;;2.49;100.00;94893.91;1022921;29;20439;-69
2020/12/13 02:00:38;;;;;;;19.06;14.98;;;;;;;2.47;100.00;94903.69;1023738;28;20102;-68
2020/12/13 02:01:09;;;;;;;17.38;14.52;;;;;;;2.42;100.00;94895.88;1023381;28;20031;-68
2020/12/13 02:01:39;;;;;;;19.48;15.07;;;;;;;2.44;100.00;94893.03;1023813;28;20034;-68
2020/12/13 02:02:10;;;;;;;19.55;15.55;;;;;;;2.48;100.00;94899.31;1027007;28;20475;-71
2020/12/13 02:02:43;;;;;;;17.98;14.80;;;;;;;2.46;100.00;94907.31;1022759;28;20077;-69
2020/12/13 02:03:19;;;;;;;17.54;14.00;;;;;;;2.47;100.00;94906.28;1026259;28;20048;-70
2020/12/13 02:03:54;;;;;;;19.50;15.30;;;;;;;2.44;100.00;94893.81;1022980;29;20015;-69
2020/12/13 02:04:24;;;;;;;21.24;14.74;;;;;;;2.46;100.00;94907.31;1022831;29;20127;-68
2020/12/13 02:04:55;;;;;;;19.98;15.95;;;;;;;2.37;100.00;94888.00;1025355;28;20022;-69
2020/12/13 02:05:25;;;;;;;23.45;17.25;;;;;;;2.45;100.00;94895.41;1025063;28;20660;-68
2020/12/13 02:06:17;;;;;;;21.70;16.10;;;;;;;2.47;100.00;94898.53;1028612;28;20186;-67
2020/12/13 02:06:53;;;;;;;21.22;15.54;;;;;;;2.37;100.00;94885.41;1026937;28;20079;-68
2020/12/13 02:07:24;;;;;;;18.82;14.72;;;;;;;2.47;100.00;94901.13;1030532;28;20034;-68
2020/12/13 02:07:55;;;;;;;25.52;17.92;;;;;;;2.41;100.00;94899.44;1018866;28;20030;-71
2020/12/13 02:08:25;;;;;;;16.40;13.23;;;;;;;2.49;100.00;94904.28;1018965;28;20024;-69
2020/12/13 02:08:55;;;;;;;19.05;15.00;;;;;;;2.46;100.00;94894.38;1015058;28;20256;-67
2020/12/13 02:09:26;;;;;;;24.15;16.42;;;;;;;2.45;100.00;94905.75;1021052;28;20028;-69
2020/12/13 02:09:58;;;;;;;21.83;16.30;;;;;;;2.39;100.00;94891.16;1030664;28;20041;-69
2020/12/13 02:10:28;;;;;;;21.18;15.30;;;;;;;2.47;100.00;94908.09;1030911;28;20021;-72
2020/12/13 02:10:59;;;;;;;16.88;14.05;;;;;;;2.49;100.00;94901.69;1022707;28;20027;-69
2020/12/13 02:11:31;;;;;;;19.00;15.30;;;;;;;2.48;100.00;94905.28;1025966;28;20027;-68
2020/12/13 02:12:02;;;;;;;18.30;14.32;;;;;;;2.42;100.00;94889.91;1026747;28;20027;-68
2020/12/13 02:12:32;;;;;;;20.85;15.98;;;;;;;2.36;100.00;94882.03;1026910;28;20057;-68
2020/12/13 02:13:03;;;;;;;16.75;14.45;;;;;;;2.44;100.00;94898.19;1023128;28;20054;-68
2020/12/13 02:13:34;;;;;;;17.80;14.48;;;;;;;2.48;100.00;94907.88;1014722;28;20028;-69
2020/12/13 02:14:04;;;;;;;19.52;14.25;;;;;;;2.49;100.00;94900.91;1022755;29;20080;-68
2020/12/13 02:14:35;;;;;;;17.83;14.07;;;;;;;2.50;100.00;94899.88;1030774;28;20030;-68
2020/12/13 02:15:06;;;;;;;19.15;15.63;;;;;;;2.46;100.00;94898.78;1031090;28;20409;-69
2020/12/13 02:15:36;;;;;;;20.60;15.93;;;;;;;2.47;100.00;94897.75;1026511;28;20023;-70
2020/12/13 02:16:07;;;;;;;20.90;14.82;;;;;;;2.45;100.00;94897.19;1028090;28;20015;-69
2020/12/13 02:16:38;;;;;;;18.46;15.24;;;;;;;2.48;100.00;94901.91;1023061;28;20027;-70
2020/12/13 02:17:08;;;;;;;18.48;14.40;;;;;;;2.48;100.00;94899.31;1027098;28;20022;-71
2020/12/13 02:17:39;;;;;;;17.65;14.07;;;;;;;2.50;100.00;94913.59;1026189;28;20023;-71
2020/12/13 02:18:09;;;;;;;17.13;14.38;;;;;;;2.51;100.00;94909.97;1022325;29;20015;-70
2020/12/13 02:18:42;;;;;;;15.05;12.55;;;;;;;2.51;100.00;94902.22;1022184;28;20439;-69
2020/12/13 02:19:12;;;;;;;16.66;13.88;;;;;;;2.55;100.00;94905.94;1023556;28;20080;-69
2020/12/13 02:19:42;;;;;;;23.35;15.27;;;;;;;2.53;100.00;94902.00;1022581;28;20023;-68
2020/12/13 02:20:13;;;;;;;19.27;14.70;;;;;;;2.54;100.00;94909.53;1023348;28;20035;-69
2020/12/13 02:20:44;;;;;;;19.17;15.18;;;;;;;2.54;100.00;94912.09;1023391;28;20031;-68
2020/12/13 02:21:14;;;;;;;19.10;13.93;;;;;;;2.51;100.00;94909.97;1022638;28;20294;-69
2020/12/13 02:21:45;;;;;;;17.63;14.23;;;;;;;2.48;100.00;94900.13;1018203;28;20035;-69
2020/12/13 02:22:16;;;;;;;18.56;14.76;;;;;;;2.45;100.00;94894.59;1019093;28;20042;-72
2020/12/13 02:22:47;;;;;;;19.55;14.82;;;;;;;2.54;100.00;94908.75;1019121;28;20027;-68
2020/12/13 02:23:18;;;;;;;16.04;13.40;;;;;;;2.46;100.00;94896.19;1022617;29;20089;-69
2020/12/13 02:23:48;;;;;;;18.20;14.07;;;;;;;2.56;100.00;94907.50;1023105;28;20023;-68
2020/12/13 02:24:19;;;;;;;19.65;14.55;;;;;;;2.55;100.00;94905.16;1026829;28;20038;-69
2020/12/13 02:24:49;;;;;;;17.60;13.90;;;;;;;2.56;100.00;94912.69;1030809;28;20453;-69
2020/12/13 02:25:21;;;;;;;18.45;14.35;;;;;;;2.51;100.00;94904.81;1022807;29;20598;-67
2020/12/13 02:25:52;;;;;;;16.58;13.52;;;;;;;2.53;100.00;94907.97;1026785;28;20401;-68